Tilford, South Dakota
Current Conditions -  °F | °C
As of 2:58 AM on Sunday 23 Nov 2014 (Local Time) from KRCA Reporting Station
Clear Clear  
Wind Chill: -2°   Ceiling: Unl
Heat Index:   Visibility: 10mi
Dew Point: -6°   Wind: 21mph
Humidity: 50%   Direction: 330°NNW
Pressure: 29.6"   Gusts: NA
Location:  44.2544°N, 103.292°W
Report Text: KRCA 230958Z AUTO 33018KT 10SM CLR 04/M06 A2960 RMK AO2 PK WND 32029/35 SLP031 T00351062 $
Loading
Personal Weather Stations






























Interactive Weather Map New forecast layout! Learn more

10-Day Weather Forecast

Advertisements
Track Severe Weather on mobile